Time;durP1;ratioP1;P1;durP2;ratioP2;P2;SDS_P1;SDS_P2;PMS_P1;PMS_P2;Temp;Humidity;BMP_temperature;BMP_pressure;BME280_temperature;BME280_humidity;BME280_pressure;Samples;Min_cycle;Max_cycle;Signal;HPM_P1;HPM_P2
2023/07/18 00:00:38;;;;;;;19.33;9.13;;;11.80;99.90;;;13.72;100.00;101223.13;5006286;28;20039;-77
2023/07/18 00:03:05;;;;;;;19.90;9.15;;;11.80;99.90;;;13.67;100.00;101203.78;5005112;28;20478;-77
2023/07/18 00:05:33;;;;;;;16.95;8.27;;;11.80;99.90;;;13.63;100.00;101217.09;4990633;28;20141;-77
2023/07/18 00:07:58;;;;;;;16.33;8.27;;;11.80;99.90;;;13.62;100.00;101222.78;4985758;28;20046;-77
2023/07/18 00:10:24;;;;;;;15.32;8.10;;;11.80;99.90;;;13.57;100.00;101215.25;4990255;28;20053;-77
2023/07/18 00:12:50;;;;;;;17.42;8.70;;;11.80;99.90;;;13.58;100.00;101216.94;4985431;28;20383;-76
2023/07/18 00:15:17;;;;;;;18.95;7.68;;;11.80;99.90;;;13.60;100.00;101224.91;4992104;28;20022;-77
2023/07/18 00:17:43;;;;;;;19.17;8.88;;;11.80;99.90;;;13.56;100.00;101221.78;4988188;28;20042;-76
2023/07/18 00:20:13;;;;;;;20.70;8.52;;;11.80;99.90;;;13.52;100.00;101213.16;4977265;28;20050;-76
2023/07/18 00:22:44;;;;;;;17.40;8.30;;;11.80;99.90;;;13.57;100.00;101208.91;4988169;28;20057;-77
2023/07/18 00:25:13;;;;;;;17.13;8.00;;;11.70;99.90;;;13.52;100.00;101212.31;4990197;28;20084;-77
2023/07/18 00:27:40;;;;;;;16.20;8.48;;;11.80;99.90;;;13.52;100.00;101213.16;4991419;28;20050;-77
2023/07/18 00:30:08;;;;;;;22.83;8.70;;;11.80;99.90;;;13.52;100.00;101206.81;4968786;28;20035;-77
2023/07/18 00:32:34;;;;;;;15.57;7.95;;;11.80;99.90;;;13.51;100.00;101210.63;4996564;28;20042;-78
2023/07/18 00:35:00;;;;;;;14.43;7.95;;;11.90;99.90;;;13.57;100.00;101207.03;4989801;28;20384;-77
2023/07/18 00:37:26;;;;;;;16.73;8.15;;;11.90;99.90;;;13.55;100.00;101206.41;4991156;28;20034;-77
2023/07/18 00:39:53;;;;;;;19.23;7.82;;;11.80;99.90;;;13.59;100.00;101210.38;4990160;28;20458;-77
2023/07/18 00:42:19;;;;;;;16.70;8.50;;;11.80;99.90;;;13.57;100.00;101214.38;4982177;28;20038;-77
2023/07/18 00:44:50;;;;;;;16.65;8.73;;;11.80;99.90;;;13.58;100.00;101207.84;4988716;28;20038;-77
2023/07/18 00:47:22;;;;;;;15.32;7.93;;;11.80;99.90;;;13.59;100.00;101207.63;5006602;28;20042;-77
2023/07/18 00:49:49;;;;;;;14.82;8.18;;;11.80;99.90;;;13.64;100.00;101210.53;4991076;28;20081;-76
2023/07/18 00:52:15;;;;;;;14.37;7.73;;;11.80;99.90;;;13.62;100.00;101209.94;4981098;28;20042;-77
2023/07/18 00:54:43;;;;;;;21.95;8.45;;;11.70;99.90;;;13.62;100.00;101207.19;4998878;28;20375;-77
2023/07/18 00:57:11;;;;;;;16.65;8.25;;;11.70;99.90;;;13.56;100.00;101205.34;4979912;28;20042;-77
2023/07/18 00:59:38;;;;;;;13.93;7.90;;;11.70;99.90;;;12.33;100.00;101183.44;4993237;28;20046;-77
2023/07/18 01:02:05;;;;;;;18.90;8.93;;;11.70;99.90;;;11.98;100.00;101135.34;4977495;28;20034;-77
2023/07/18 01:04:32;;;;;;;14.60;7.67;;;11.60;99.90;;;11.92;100.00;101112.41;4986519;28;20042;-77
2023/07/18 01:07:00;;;;;;;18.20;8.23;;;11.60;99.90;;;11.89;100.00;101085.50;4998817;28;20040;-77
2023/07/18 01:09:25;;;;;;;20.40;7.95;;;11.60;99.90;;;11.85;100.00;101056.09;4989819;28;20045;-77
2023/07/18 01:11:52;;;;;;;16.45;7.97;;;11.60;99.90;;;11.82;100.00;101049.16;4995821;28;20054;-77
2023/07/18 01:14:18;;;;;;;15.77;8.27;;;11.60;99.90;;;11.79;100.00;101034.00;4980192;28;20498;-77
2023/07/18 01:16:44;;;;;;;15.77;7.32;;;11.60;99.90;;;12.04;100.00;101027.84;4988157;28;20066;-77
2023/07/18 01:19:10;;;;;;;15.68;7.57;;;11.50;99.90;;;13.52;100.00;101075.25;5004256;28;20124;-77
2023/07/18 01:21:38;;;;;;;17.45;8.82;;;11.50;99.90;;;13.64;100.00;101141.16;4976676;28;20074;-77
2023/07/18 01:24:05;;;;;;;15.57;8.20;;;11.40;99.90;;;13.62;100.00;101185.25;5002781;28;20034;-78
2023/07/18 01:26:31;;;;;;;19.42;8.15;;;11.40;99.90;;;13.59;100.00;101191.19;4975492;28;20114;-77
2023/07/18 01:28:56;;;;;;;16.88;7.95;;;11.40;99.90;;;13.55;100.00;101202.81;4988907;28;20041;-77
2023/07/18 01:31:22;;;;;;;19.42;7.05;;;11.40;99.90;;;13.52;100.00;101209.56;4989908;28;20106;-77
2023/07/18 01:33:48;;;;;;;14.35;7.22;;;11.40;99.90;;;13.47;100.00;101209.41;4989023;28;20042;-77
2023/07/18 01:36:15;;;;;;;14.63;7.10;;;11.40;99.90;;;13.44;100.00;101207.97;4989165;28;20111;-77
2023/07/18 01:38:42;;;;;;;16.92;7.38;;;11.40;99.90;;;13.40;100.00;101195.75;4982982;28;20053;-77
2023/07/18 01:41:08;;;;;;;16.95;7.47;;;11.40;99.90;;;13.35;100.00;101195.53;4989275;28;20467;-77
2023/07/18 01:43:34;;;;;;;13.35;7.25;;;11.40;99.90;;;13.30;100.00;101196.22;4989237;28;20046;-77
2023/07/18 01:46:01;;;;;;;16.77;7.97;;;11.30;99.90;;;13.28;100.00;101195.63;4989966;28;20061;-77
2023/07/18 01:48:28;;;;;;;16.13;7.97;;;11.30;99.90;;;13.26;100.00;101196.88;4990331;28;20042;-77
2023/07/18 01:50:54;;;;;;;17.40;8.40;;;11.20;99.90;;;13.17;100.00;101193.56;4988982;28;20375;-77
2023/07/18 01:53:26;;;;;;;19.42;8.27;;;11.30;99.90;;;13.20;100.00;101191.25;4991758;28;20126;-77
2023/07/18 01:55:56;;;;;;;24.50;8.52;;;11.30;99.90;;;13.18;100.00;101190.63;4990050;28;20090;-77
2023/07/18 01:58:22;;;;;;;19.92;8.70;;;11.30;99.90;;;13.19;100.00;101185.97;4977669;28;20505;-77
2023/07/18 02:00:47;;;;;;;16.92;7.88;;;11.30;99.90;;;13.14;100.00;101183.06;5000864;28;20038;-77
2023/07/18 02:03:13;;;;;;;18.80;8.38;;;11.30;99.90;;;13.09;100.00;101179.09;5005738;28;20042;-77
2023/07/18 02:05:39;;;;;;;17.30;8.55;;;11.30;99.90;;;11.82;100.00;101160.41;4990977;28;20045;-77
2023/07/18 02:08:05;;;;;;;14.82;8.25;;;11.30;99.90;;;11.68;100.00;101126.78;4986210;28;20034;-77
2023/07/18 02:10:32;;;;;;;22.57;8.70;;;11.30;99.90;;;12.01;100.00;101112.22;4979556;28;20027;-77
2023/07/18 02:13:02;;;;;;;20.17;9.00;;;11.20;99.90;;;11.54;100.00;101076.75;4986888;28;20039;-77
2023/07/18 02:15:28;;;;;;;15.23;8.30;;;11.20;99.90;;;11.69;100.00;101062.88;4991403;28;20101;-77
2023/07/18 02:17:54;;;;;;;13.70;8.75;;;11.20;99.90;;;11.48;100.00;101046.50;4993166;28;20030;-77
2023/07/18 02:20:20;;;;;;;18.08;8.88;;;11.20;99.90;;;11.42;100.00;101041.91;5007822;28;20057;-77
2023/07/18 02:22:48;;;;;;;21.17;9.32;;;11.20;99.90;;;11.43;100.00;101021.72;4992952;28;20041;-76
2023/07/18 02:25:17;;;;;;;20.92;9.38;;;11.20;99.90;;;11.48;100.00;101013.72;4991702;28;20196;-77
2023/07/18 02:27:43;;;;;;;18.63;9.15;;;11.20;99.90;;;11.55;100.00;101004.69;4991859;28;20130;-77
2023/07/18 02:30:11;;;;;;;23.38;10.13;;;11.30;99.90;;;11.59;100.00;101004.03;4991301;28;20049;-77
2023/07/18 02:32:39;;;;;;;18.25;10.10;;;11.30;99.90;;;11.59;100.00;101001.28;5008623;28;20498;-77
2023/07/18 02:35:12;;;;;;;21.38;9.98;;;11.30;99.90;;;11.63;100.00;100994.34;5007749;28;20030;-76
2023/07/18 02:37:38;;;;;;;23.95;10.23;;;11.40;99.90;;;11.60;100.00;100989.31;4986749;28;20038;-77
2023/07/18 02:40:08;;;;;;;18.67;10.10;;;11.30;99.90;;;11.64;100.00;100985.09;4982783;28;20042;-76
2023/07/18 02:42:37;;;;;;;23.30;9.98;;;11.40;99.90;;;11.66;100.00;100991.16;4987104;28;20074;-77
2023/07/18 02:45:03;;;;;;;21.83;10.70;;;11.40;99.90;;;11.68;100.00;100992.88;4978599;28;20034;-77
2023/07/18 02:47:30;;;;;;;25.02;9.98;;;11.40;99.90;;;11.70;100.00;100998.97;4989509;28;20050;-77
2023/07/18 02:49:56;;;;;;;24.35;10.68;;;11.40;99.90;;;11.60;100.00;100996.69;4990528;28;20035;-76
2023/07/18 02:52:21;;;;;;;21.35;10.68;;;11.40;99.90;;;11.68;100.00;101001.91;5003768;28;20359;-77
2023/07/18 02:54:47;;;;;;;27.17;10.75;;;11.40;99.90;;;11.75;100.00;100999.16;4990269;28;20085;-76
2023/07/18 02:57:13;;;;;;;23.30;10.82;;;11.50;99.90;;;11.75;100.00;101002.72;4991130;28;20085;-76
2023/07/18 02:59:39;;;;;;;25.27;10.77;;;11.50;99.90;;;11.78;100.00;101010.47;4985829;28;20062;-77
2023/07/18 03:02:05;;;;;;;22.27;10.27;;;11.50;99.90;;;11.82;100.00;101008.16;4989098;28;20038;-77
2023/07/18 03:04:31;;;;;;;24.80;11.30;;;11.60;99.90;;;11.82;100.00;101012.78;4992124;28;20061;-77
2023/07/18 03:06:57;;;;;;;24.52;11.43;;;11.60;99.90;;;11.82;100.00;101010.88;5001099;28;20470;-77
2023/07/18 03:09:23;;;;;;;27.15;12.05;;;11.60;99.90;;;11.85;100.00;101017.81;4990140;28;20034;-76
2023/07/18 03:11:52;;;;;;;25.58;11.90;;;11.60;99.90;;;11.86;100.00;101025.78;4991604;28;20441;-76
2023/07/18 03:14:18;;;;;;;23.20;11.23;;;11.60;99.90;;;11.83;100.00;101028.97;4978777;28;20039;-76
2023/07/18 03:16:48;;;;;;;22.40;11.63;;;11.60;99.90;;;11.80;100.00;101023.94;4990497;28;20118;-76
2023/07/18 03:19:15;;;;;;;30.20;13.00;;;11.60;99.90;;;11.87;100.00;101032.94;4991941;28;20034;-77
2023/07/18 03:21:40;;;;;;;25.20;11.63;;;11.60;99.90;;;11.89;100.00;101028.09;4992229;28;20089;-77
2023/07/18 03:24:10;;;;;;;24.45;11.73;;;11.60;99.90;;;11.90;100.00;101031.69;5006233;28;20038;-76
2023/07/18 03:26:36;;;;;;;24.85;11.45;;;11.60;99.90;;;11.94;100.00;101032.91;4990193;28;20034;-76
2023/07/18 03:29:05;;;;;;;23.27;11.52;;;11.60;99.90;;;11.96;100.00;101030.00;4983604;28;20426;-76
2023/07/18 03:31:33;;;;;;;27.20;11.45;;;11.60;99.90;;;12.05;100.00;101039.66;4991452;28;20046;-76
2023/07/18 03:34:00;;;;;;;27.90;12.27;;;11.60;99.90;;;12.01;100.00;101039.22;4991818;28;20077;-76
2023/07/18 03:36:27;;;;;;;19.40;10.83;;;11.70;99.90;;;11.98;100.00;101045.09;4990669;28;20043;-76
2023/07/18 03:38:52;;;;;;;20.60;10.38;;;11.70;99.90;;;12.04;100.00;101044.25;4999705;28;20045;-77
2023/07/18 03:41:22;;;;;;;22.70;10.68;;;11.70;99.90;;;12.05;100.00;101039.66;4990821;28;20491;-76
2023/07/18 03:43:48;;;;;;;27.30;11.07;;;11.80;99.90;;;12.07;100.00;101046.59;4984158;28;20093;-77
2023/07/18 03:46:14;;;;;;;21.30;10.55;;;11.80;99.90;;;12.14;100.00;101046.53;4984277;28;20088;-76
2023/07/18 03:48:40;;;;;;;28.77;11.80;;;11.80;99.90;;;12.22;100.00;101050.91;4991302;28;20394;-77
2023/07/18 03:51:06;;;;;;;25.27;10.55;;;11.90;99.90;;;12.22;100.00;101054.50;4997927;28;20034;-76
2023/07/18 03:53:32;;;;;;;22.83;10.85;;;11.90;99.90;;;12.25;100.00;101058.69;4992017;28;20034;-77
2023/07/18 03:56:06;;;;;;;20.25;10.40;;;11.90;99.90;;;12.25;100.00;101057.88;4993017;28;20045;-76
2023/07/18 03:58:32;;;;;;;28.45;10.57;;;12.00;99.90;;;12.39;100.00;101067.66;4992434;28;20432;-77
2023/07/18 04:00:58;;;;;;;21.80;10.32;;;12.00;99.90;;;12.44;100.00;101065.09;4986165;28;20037;-76
2023/07/18 04:03:27;;;;;;;22.48;9.77;;;12.10;99.90;;;12.80;100.00;101069.09;4991006;28;20042;-76
2023/07/18 04:05:53;;;;;;;26.23;10.90;;;12.10;99.90;;;12.78;100.00;101095.00;4987953;28;20142;-76
2023/07/18 04:08:18;;;;;;;24.00;9.70;;;12.20;99.90;;;12.88;100.00;101108.22;4992900;28;20038;-76
2023/07/18 04:10:44;;;;;;;21.73;10.13;;;12.30;99.90;;;12.91;100.00;101132.44;4988983;28;20042;-76
2023/07/18 04:13:10;;;;;;;19.65;9.43;;;12.30;99.90;;;12.89;100.00;101137.28;4994071;28;20034;-78
2023/07/18 04:15:36;;;;;;;17.80;8.82;;;12.30;99.90;;;12.96;100.00;101143.53;4990496;28;20030;-75
2023/07/18 04:18:02;;;;;;;22.42;8.95;;;12.40;99.90;;;12.98;100.00;101146.91;4995236;28;20092;-74
2023/07/18 04:20:27;;;;;;;19.40;8.15;;;12.40;99.90;;;12.98;100.00;101152.38;4995657;28;20402;-74
2023/07/18 04:22:53;;;;;;;17.50;8.63;;;12.40;99.90;;;13.03;100.00;101160.81;4989420;28;20034;-77
2023/07/18 04:25:19;;;;;;;22.42;9.15;;;12.40;99.90;;;13.09;100.00;101164.53;4990105;28;20066;-75
2023/07/18 04:27:47;;;;;;;22.88;8.80;;;12.50;99.90;;;13.17;100.00;101171.66;4984945;28;20505;-75
2023/07/18 04:30:13;;;;;;;20.73;9.43;;;12.50;99.90;;;13.16;100.00;101172.72;5005925;28;20104;-77
2023/07/18 04:32:42;;;;;;;19.63;8.13;;;12.60;99.90;;;13.26;100.00;101175.81;4991900;28;20046;-74
2023/07/18 04:35:09;;;;;;;18.17;8.50;;;12.60;99.90;;;13.19;100.00;101172.25;4985243;28;20035;-75
2023/07/18 04:37:35;;;;;;;20.13;8.10;;;12.60;99.90;;;13.17;100.00;101174.38;4989629;28;20051;-74
2023/07/18 04:40:05;;;;;;;15.40;7.32;;;12.60;99.90;;;13.23;100.00;101171.63;4989227;28;20050;-76
2023/07/18 04:42:33;;;;;;;15.05;7.20;;;12.60;99.90;;;13.23;100.00;101166.13;4977746;28;20030;-76
2023/07/18 04:44:59;;;;;;;16.00;7.68;;;12.70;99.90;;;13.21;100.00;101165.50;4988011;28;20049;-77
2023/07/18 04:47:25;;;;;;;22.33;7.57;;;12.70;99.90;;;13.30;100.00;101173.47;4989287;28;20038;-76
2023/07/18 04:49:51;;;;;;;18.27;7.70;;;12.70;99.90;;;13.37;100.00;101177.84;4960158;28;20085;-77
2023/07/18 04:52:17;;;;;;;16.55;8.30;;;12.80;99.90;;;13.37;100.00;101161.38;4985960;28;20313;-76
2023/07/18 04:54:43;;;;;;;18.95;8.18;;;12.80;99.90;;;13.42;100.00;101165.34;4990206;28;20043;-75
2023/07/18 04:57:09;;;;;;;18.50;8.88;;;12.90;99.90;;;13.50;100.00;101171.44;4978893;28;20053;-77
2023/07/18 04:59:34;;;;;;;18.30;7.88;;;12.90;99.90;;;13.54;100.00;101181.94;4984505;28;20077;-76
2023/07/18 05:02:00;;;;;;;21.85;8.73;;;13.00;99.90;;;13.62;100.00;101176.19;4989148;28;20034;-75
2023/07/18 05:04:26;;;;;;;18.13;8.70;;;13.00;99.90;;;13.70;100.00;101167.69;4999463;28;20038;-76
2023/07/18 05:06:51;;;;;;;18.08;8.45;;;13.10;99.90;;;13.83;100.00;101180.44;5003360;28;20035;-77
2023/07/18 05:09:17;;;;;;;18.60;8.57;;;13.20;99.90;;;13.88;100.00;101169.63;5004883;28;20109;-77
2023/07/18 05:11:43;;;;;;;23.40;8.13;;;13.30;99.90;;;14.08;100.00;101176.81;4981490;28;20038;-77
2023/07/18 05:14:09;;;;;;;14.98;7.68;;;13.40;99.90;;;14.03;100.00;101179.38;5005848;28;20050;-77
2023/07/18 05:16:35;;;;;;;16.13;7.63;;;13.60;99.90;;;14.17;100.00;101188.31;4983788;28;20133;-77
2023/07/18 05:19:00;;;;;;;15.18;7.22;;;13.60;99.90;;;14.07;100.00;101203.38;4987512;28;20439;-78
2023/07/18 05:21:26;;;;;;;17.08;7.72;;;13.70;99.90;;;14.20;100.00;101212.56;4986607;28;20039;-76
2023/07/18 05:23:52;;;;;;;15.00;6.95;;;13.80;99.90;;;14.30;100.00;101214.75;4989240;28;20034;-77
2023/07/18 05:26:18;;;;;;;17.60;7.38;;;13.90;99.90;;;14.39;100.00;101218.91;4989114;28;20046;-78
2023/07/18 05:28:43;;;;;;;18.05;6.95;;;14.00;99.90;;;14.45;100.00;101225.34;4990645;28;20038;-78
2023/07/18 05:31:09;;;;;;;17.48;6.82;;;14.10;99.90;;;14.48;100.00;101227.66;4982773;28;20042;-77
2023/07/18 05:33:35;;;;;;;17.60;6.80;;;14.10;99.90;;;14.51;100.00;101247.25;5004381;28;20501;-77
2023/07/18 05:36:01;;;;;;;16.75;6.70;;;14.20;99.90;;;14.48;100.00;101246.88;4979743;28;20080;-77
2023/07/18 05:38:27;;;;;;;15.98;6.60;;;14.10;99.90;;;14.40;100.00;101245.28;4985304;28;20042;-78
2023/07/18 05:40:53;;;;;;;13.77;6.05;;;14.10;99.90;;;14.43;100.00;101247.56;4989898;28;20074;-78
2023/07/18 05:43:19;;;;;;;13.73;6.38;;;14.10;99.90;;;14.42;100.00;101251.38;4986176;28;20043;-78
2023/07/18 05:45:45;;;;;;;16.33;6.57;;;14.00;99.90;;;14.50;100.00;101245.56;4988228;28;20057;-78
2023/07/18 05:48:12;;;;;;;12.52;6.18;;;14.10;99.90;;;14.52;100.00;101254.41;4980865;28;20090;-77
2023/07/18 05:50:38;;;;;;;14.32;6.32;;;14.20;99.90;;;14.62;100.00;101233.84;4983477;28;20026;-79
2023/07/18 05:53:03;;;;;;;15.23;6.30;;;14.20;99.90;;;14.77;100.00;101258.19;5002637;28;20386;-78
2023/07/18 05:55:30;;;;;;;12.30;6.10;;;14.40;99.90;;;14.95;100.00;101263.66;4984502;28;20045;-78
2023/07/18 05:57:55;;;;;;;13.98;5.85;;;14.50;99.90;;;14.91;100.00;101267.94;4995939;28;20046;-79
2023/07/18 06:00:21;;;;;;;20.88;6.43;;;14.60;99.90;;;15.03;100.00;101272.66;4994049;28;20034;-79
2023/07/18 06:02:50;;;;;;;12.52;5.93;;;14.70;99.90;;;15.06;100.00;101273.03;4993802;28;20034;-78
2023/07/18 06:05:16;;;;;;;11.93;6.07;;;14.80;99.90;;;15.25;100.00;101273.00;4989585;28;20049;-78
2023/07/18 06:07:41;;;;;;;12.07;5.95;;;14.90;99.90;;;15.36;100.00;101280.44;4992132;28;20026;-77
2023/07/18 06:10:07;;;;;;;14.77;6.03;;;15.10;99.90;;;15.54;100.00;101281.44;4991519;28;20039;-78
2023/07/18 06:12:33;;;;;;;11.77;6.13;;;15.20;99.90;;;15.70;100.00;101290.13;4993092;28;20038;-77
2023/07/18 06:14:59;;;;;;;12.98;4.93;;;15.30;99.90;;;15.77;100.00;101290.84;4989901;28;20085;-78
2023/07/18 06:17:26;;;;;;;12.13;5.45;;;15.40;99.90;;;15.84;100.00;101291.56;4989135;28;20367;-77
2023/07/18 06:19:52;;;;;;;15.07;5.75;;;15.50;99.90;;;15.95;100.00;101306.44;4993334;28;20038;-78
2023/07/18 06:22:18;;;;;;;13.82;6.03;;;15.60;99.90;;;16.18;100.00;101302.03;4987663;28;21759;-77
2023/07/18 06:24:45;;;;;;;15.38;5.60;;;15.70;99.90;;;16.29;100.00;101308.63;4987743;28;20038;-77
2023/07/18 06:27:10;;;;;;;16.02;5.00;;;15.90;99.90;;;16.37;100.00;101306.38;4992543;28;20825;-78
2023/07/18 06:29:37;;;;;;;13.95;5.53;;;16.00;99.90;;;16.51;100.00;101312.47;4993075;28;20030;-78
2023/07/18 06:32:05;;;;;;;11.88;5.20;;;16.10;99.90;;;16.54;100.00;101306.47;4989071;28;20066;-78
2023/07/18 06:34:33;;;;;;;10.35;4.60;;;16.20;99.90;;;16.44;100.00;101313.66;4991033;28;20064;-78
2023/07/18 06:37:01;;;;;;;8.32;4.25;;;16.30;99.90;;;17.15;100.00;101315.47;4986971;28;20041;-77
2023/07/18 06:39:29;;;;;;;11.73;4.88;;;16.40;99.90;;;16.82;100.00;101318.66;4983087;28;20410;-78
2023/07/18 06:41:56;;;;;;;9.80;4.90;;;16.40;99.90;;;16.85;100.00;101311.81;4992899;28;20035;-79
2023/07/18 06:44:22;;;;;;;12.10;4.60;;;16.60;99.90;;;16.78;100.00;101317.47;5007263;28;20038;-78
2023/07/18 06:46:49;;;;;;;12.43;4.47;;;16.60;99.90;;;17.04;100.00;101319.94;4975605;28;20042;-79
2023/07/18 06:49:15;;;;;;;12.27;4.37;;;16.70;99.90;;;17.15;100.00;101313.56;4990097;28;20157;-79
2023/07/18 06:51:41;;;;;;;13.48;4.88;;;16.90;99.90;;;17.11;100.00;101315.16;4991338;28;20402;-81
2023/07/18 06:54:08;;;;;;;16.48;5.45;;;16.90;99.90;;;17.22;100.00;101319.75;4992221;28;20069;-78
2023/07/18 06:56:34;;;;;;;11.88;5.60;;;17.00;99.90;;;17.21;100.00;101314.47;4992338;28;20042;-78
2023/07/18 06:59:01;;;;;;;13.07;4.63;;;17.10;99.90;;;17.31;100.00;101320.22;4992300;28;20038;-78
2023/07/18 07:01:26;;;;;;;10.98;3.90;;;17.10;99.90;;;17.49;100.00;101315.56;4988844;28;20038;-78
2023/07/18 07:03:52;;;;;;;10.65;4.10;;;17.20;99.90;;;17.63;100.00;101311.44;4991344;28;20030;-77
2023/07/18 07:06:20;;;;;;;11.73;3.90;;;17.40;99.90;;;17.84;100.00;101309.03;4984265;28;20037;-79
2023/07/18 07:08:45;;;;;;;8.73;3.42;;;17.50;99.90;;;17.94;100.00;101303.69;4991088;28;20117;-80
2023/07/18 07:11:11;;;;;;;7.50;3.30;;;17.70;99.90;;;17.91;100.00;101301.41;4992031;28;20104;-79
2023/07/18 07:13:37;;;;;;;10.85;3.33;;;17.80;99.90;;;18.06;100.00;101314.66;4988122;28;20038;-81
2023/07/18 07:16:04;;;;;;;8.85;3.70;;;17.90;99.90;;;18.12;100.00;101315.59;4986119;28;20039;-78
2023/07/18 07:18:30;;;;;;;9.02;3.38;;;17.90;99.90;;;18.12;100.00;101315.59;4986873;28;20039;-80
2023/07/18 07:20:56;;;;;;;11.13;3.92;;;18.00;99.90;;;18.13;100.00;101320.03;4991791;28;20034;-80
2023/07/18 07:23:22;;;;;;;8.38;3.08;;;18.00;99.90;;;18.28;100.00;101310.28;4988492;28;20375;-81
2023/07/18 07:25:48;;;;;;;7.53;3.30;;;18.00;99.90;;;18.40;100.00;101305.53;4987680;28;20026;-80
2023/07/18 07:28:13;;;;;;;10.05;3.03;;;18.10;99.90;;;18.53;100.00;101307.09;4982594;28;20038;-79
2023/07/18 07:30:39;;;;;;;9.35;2.33;;;18.20;99.90;;;18.79;100.00;101315.72;4991539;28;20034;-80
2023/07/18 07:33:05;;;;;;;10.20;3.03;;;18.40;99.90;;;18.83;100.00;101309.44;4991874;28;20121;-80
2023/07/18 07:35:31;;;;;;;10.07;2.95;;;18.50;99.90;;;18.87;100.00;101300.63;4991974;28;20401;-80
2023/07/18 07:37:58;;;;;;;13.02;2.70;;;18.70;99.90;;;18.81;100.00;101303.31;4987577;28;20034;-79
2023/07/18 07:40:23;;;;;;;6.55;2.65;;;18.70;99.90;;;18.83;100.00;101300.31;4991394;28;20065;-78
2023/07/18 07:42:49;;;;;;;6.70;2.40;;;18.70;99.90;;;18.95;100.00;101298.22;4990981;28;20034;-79
2023/07/18 07:45:16;;;;;;;5.88;2.25;;;18.70;99.90;;;19.03;100.00;101299.75;4991106;28;20042;-79
2023/07/18 07:47:43;;;;;;;7.05;2.80;;;18.80;99.90;;;19.04;100.00;101289.53;4986647;28;20046;-79
2023/07/18 07:50:10;;;;;;;7.95;2.40;;;19.00;99.90;;;19.33;100.00;101292.06;4988490;28;20030;-81
2023/07/18 07:52:36;;;;;;;6.80;2.38;;;19.10;99.90;;;19.42;100.00;101287.72;4991072;28;20061;-80
2023/07/18 07:55:02;;;;;;;8.70;2.55;;;19.20;99.90;;;19.61;100.00;101288.19;4986395;28;20124;-80
2023/07/18 07:57:28;;;;;;;5.75;2.20;;;;;;;19.82;100.00;101288.38;4987409;28;20034;-78
2023/07/18 07:59:54;;;;;;;7.65;2.30;;;19.30;99.90;;;20.01;100.00;101279.69;4991380;28;20071;-78
2023/07/18 08:02:20;;;;;;;8.30;2.10;;;19.70;99.90;;;19.87;100.00;101270.97;4981702;28;20046;-78
2023/07/18 08:04:47;;;;;;;5.20;2.33;;;19.70;99.90;;;19.99;100.00;101266.09;4990752;28;20088;-79
2023/07/18 08:07:14;;;;;;;6.65;2.22;;;19.70;99.90;;;20.04;100.00;101259.78;4990863;28;20047;-79
2023/07/18 08:09:40;;;;;;;9.07;2.63;;;19.80;99.90;;;20.02;100.00;101264.75;4992113;28;20089;-79
2023/07/18 08:12:09;;;;;;;7.13;2.20;;;19.80;99.90;;;19.96;100.00;101264.72;4989585;28;20529;-80
2023/07/18 08:14:37;;;;;;;7.88;2.45;;;19.80;99.90;;;20.25;100.00;101267.13;4990732;28;20093;-79
2023/07/18 08:17:03;;;;;;;;;;;20.00;99.90;;;20.54;100.00;101268.66;4991106;28;20041;-78
2023/07/18 08:19:29;;;;;;;7.75;2.30;;;20.20;99.90;;;20.57;100.00;101270.94;5006007;28;20318;-79
2023/07/18 08:21:56;;;;;;;5.55;1.83;;;20.30;99.90;;;20.54;100.00;101258.44;4990056;28;20037;-79
2023/07/18 08:24:21;;;;;;;6.80;2.70;;;20.40;99.90;;;20.67;100.00;101259.88;4985968;28;20030;-79
2023/07/18 08:26:47;;;;;;;10.15;3.15;;;20.50;99.90;;;20.42;100.00;101260.56;4991259;28;20371;-80
2023/07/18 08:29:13;;;;;;;5.88;1.90;;;20.50;99.90;;;20.62;100.00;101256.22;4986841;28;20383;-79
2023/07/18 08:31:38;;;;;;;6.35;1.73;;;20.50;99.90;;;20.89;100.00;101244.19;4986579;28;20038;-79
2023/07/18 08:34:04;;;;;;;5.22;1.77;;;20.60;99.90;;;21.08;98.23;101248.13;4980614;28;20034;-80
2023/07/18 08:36:31;;;;;;;9.25;2.03;;;20.80;99.90;;;21.22;90.20;101231.78;4984683;28;20081;-80
2023/07/18 08:38:56;;;;;;;10.13;2.28;;;20.90;99.90;;;21.23;94.87;101232.63;4980020;28;20042;-80
2023/07/18 08:41:22;;;;;;;7.72;2.33;;;21.10;99.90;;;21.33;93.91;101237.34;4991473;28;20049;-79
2023/07/18 08:43:49;;;;;;;5.93;1.98;;;21.10;99.90;;;21.45;100.00;101245.41;4990289;28;20038;-79
2023/07/18 08:46:16;;;;;;;5.07;1.80;;;21.30;99.90;;;21.34;93.10;101231.53;4985478;28;20073;-81
2023/07/18 08:48:46;;;;;;;9.25;2.15;;;21.30;99.90;;;21.41;92.73;101218.19;4990727;28;20093;-79
2023/07/18 08:51:13;;;;;;;10.60;2.20;;;21.40;99.90;;;21.69;93.67;101213.25;4983995;28;20038;-80
2023/07/18 08:53:39;;;;;;;6.68;2.10;;;21.60;99.90;;;21.78;89.50;101215.47;4990172;28;20035;-79
2023/07/18 08:56:10;;;;;;;10.18;2.28;;;21.60;99.90;;;21.84;93.60;101219.91;4983501;28;20046;-80
2023/07/18 08:58:37;;;;;;;5.53;1.92;;;21.70;99.90;;;22.32;86.30;101218.69;4988783;28;20126;-81
2023/07/18 09:01:10;;;;;;;4.47;1.83;;;22.00;99.90;;;22.29;81.55;101214.53;4990023;28;20031;-80
2023/07/18 09:03:36;;;;;;;5.40;1.90;;;22.10;98.90;;;22.63;82.19;101213.06;4989752;28;20042;-80
2023/07/18 09:06:03;;;;;;;6.00;1.75;;;22.30;99.10;;;23.00;77.58;101214.50;4985541;28;20435;-79
2023/07/18 09:08:43;;;;;;;5.03;1.50;;;22.60;98.30;;;22.82;73.07;101200.16;4979085;28;20035;-79
2023/07/18 09:11:14;;;;;;;5.00;1.45;;;22.70;96.10;;;22.58;69.26;101201.97;4983625;28;20287;-79
2023/07/18 09:13:42;;;;;;;8.90;1.85;;;22.70;94.40;;;22.70;70.32;101208.00;4988170;28;20035;-79
2023/07/18 09:16:21;;;;;;;5.90;1.42;;;22.60;94.60;;;22.82;70.21;101204.88;4984799;28;20031;-77
2023/07/18 09:18:53;;;;;;;4.45;1.60;;;22.80;94.10;;;23.07;71.88;101209.44;4968293;28;20038;-80
2023/07/18 09:21:21;;;;;;;4.28;1.63;;;;;;;22.71;65.62;101195.75;4989653;28;20034;-79
2023/07/18 09:23:48;;;;;;;4.90;1.60;;;;;;;23.27;65.73;101193.78;4985131;28;20035;-80
2023/07/18 09:26:20;;;;;;;6.90;1.50;;;22.90;94.20;;;22.86;61.38;101177.34;5002769;28;20074;-78
2023/07/18 09:28:47;;;;;;;7.78;1.80;;;23.20;90.60;;;23.09;63.91;101186.91;4986060;28;20276;-78
2023/07/18 09:31:18;;;;;;;5.80;1.58;;;23.20;91.70;;;23.37;63.06;101184.50;4986112;28;20042;-79
2023/07/18 09:33:47;;;;;;;6.60;1.58;;;;;;;23.65;63.80;101176.47;5000976;28;20042;-79
2023/07/18 09:36:23;;;;;;;5.78;1.40;;;;;;;23.79;58.31;101166.31;4982224;28;20372;-79
2023/07/18 09:38:50;;;;;;;5.47;1.75;;;23.30;91.50;;;23.89;55.44;101157.03;5002818;28;20046;-78
2023/07/18 09:41:18;;;;;;;4.38;1.58;;;23.90;88.50;;;23.82;56.81;101156.53;4993561;28;20031;-81
2023/07/18 09:43:44;;;;;;;;;;;23.80;88.00;;;23.72;58.01;101162.22;4998991;28;20041;-80
2023/07/18 09:46:16;;;;;;;6.32;1.40;;;23.80;89.10;;;23.88;62.90;101187.97;4989628;28;19917;-80
2023/07/18 09:48:45;;;;;;;6.78;1.50;;;23.80;91.20;;;23.79;51.78;101134.84;4998899;28;20376;-80
2023/07/18 09:51:15;;;;;;;5.47;1.40;;;23.80;83.10;;;23.83;52.45;101139.53;4990841;28;20490;-78
2023/07/18 09:53:47;;;;;;;6.05;1.10;;;;;;;24.46;52.00;101148.03;4990471;28;20030;-80
2023/07/18 09:56:17;;;;;;;3.90;1.23;;;;;;;24.64;51.52;101149.16;4989925;28;20053;-80
2023/07/18 09:58:46;;;;;;;4.22;1.40;;;;;;;25.04;52.50;101157.25;4985839;28;20039;-80
2023/07/18 10:01:19;;;;;;;4.85;1.10;;;;;;;24.88;47.57;101127.94;4977857;28;20483;-79
2023/07/18 10:03:49;;;;;;;5.05;1.23;;;;;;;24.84;47.53;101128.53;4984548;28;20485;-79